sensor_id;sensor_type;location;lat;lon;timestamp;temperature;humidity
10415;DHT22;5254;47.696;9.138;2022-07-21T00:01:47;21.50;88.20
10415;DHT22;5254;47.696;9.138;2022-07-21T00:04:14;21.50;88.90
10415;DHT22;5254;47.696;9.138;2022-07-21T00:06:42;21.50;88.30
10415;DHT22;5254;47.696;9.138;2022-07-21T00:09:10;21.60;88.50
10415;DHT22;5254;47.696;9.138;2022-07-21T00:11:39;21.60;88.60
10415;DHT22;5254;47.696;9.138;2022-07-21T00:14:06;21.60;88.60
10415;DHT22;5254;47.696;9.138;2022-07-21T00:16:32;21.60;88.70
10415;DHT22;5254;47.696;9.138;2022-07-21T00:18:58;21.60;88.80
10415;DHT22;5254;47.696;9.138;2022-07-21T00:21:25;21.60;88.90
10415;DHT22;5254;47.696;9.138;2022-07-21T00:23:51;21.60;89.00
10415;DHT22;5254;47.696;9.138;2022-07-21T00:26:17;21.60;89.00
10415;DHT22;5254;47.696;9.138;2022-07-21T00:28:43;21.60;89.10
10415;DHT22;5254;47.696;9.138;2022-07-21T00:31:09;21.60;89.10
10415;DHT22;5254;47.696;9.138;2022-07-21T00:33:35;21.60;89.10
10415;DHT22;5254;47.696;9.138;2022-07-21T00:36:00;21.60;89.20
10415;DHT22;5254;47.696;9.138;2022-07-21T00:38:26;21.60;89.30
10415;DHT22;5254;47.696;9.138;2022-07-21T00:40:53;21.60;89.30
10415;DHT22;5254;47.696;9.138;2022-07-21T00:43:19;21.60;89.40
10415;DHT22;5254;47.696;9.138;2022-07-21T00:45:46;21.60;89.30
10415;DHT22;5254;47.696;9.138;2022-07-21T00:48:12;21.60;89.40
10415;DHT22;5254;47.696;9.138;2022-07-21T00:50:38;21.70;89.50
10415;DHT22;5254;47.696;9.138;2022-07-21T00:53:05;21.70;89.60
10415;DHT22;5254;47.696;9.138;2022-07-21T00:55:31;21.70;89.60
10415;DHT22;5254;47.696;9.138;2022-07-21T00:58:26;21.60;89.50
10415;DHT22;5254;47.696;9.138;2022-07-21T01:00:52;21.60;89.50
10415;DHT22;5254;47.696;9.138;2022-07-21T01:03:19;21.60;89.40
10415;DHT22;5254;47.696;9.138;2022-07-21T01:05:46;21.60;89.50
10415;DHT22;5254;47.696;9.138;2022-07-21T01:08:13;21.60;89.60
10415;DHT22;5254;47.696;9.138;2022-07-21T01:10:41;21.60;89.70
10415;DHT22;5254;47.696;9.138;2022-07-21T01:13:13;21.60;89.70
10415;DHT22;5254;47.696;9.138;2022-07-21T01:15:40;21.60;89.90
10415;DHT22;5254;47.696;9.138;2022-07-21T01:18:12;21.60;89.80
10415;DHT22;5254;47.696;9.138;2022-07-21T01:20:40;21.60;90.00
10415;DHT22;5254;47.696;9.138;2022-07-21T01:23:06;21.60;90.00
10415;DHT22;5254;47.696;9.138;2022-07-21T01:25:34;21.60;90.00
10415;DHT22;5254;47.696;9.138;2022-07-21T01:28:32;21.60;90.00
10415;DHT22;5254;47.696;9.138;2022-07-21T01:31:07;21.60;90.00
10415;DHT22;5254;47.696;9.138;2022-07-21T01:33:33;21.70;90.00
10415;DHT22;5254;47.696;9.138;2022-07-21T01:36:00;21.70;90.00
10415;DHT22;5254;47.696;9.138;2022-07-21T01:38:26;21.70;90.00
10415;DHT22;5254;47.696;9.138;2022-07-21T01:41:11;21.70;90.00
10415;DHT22;5254;47.696;9.138;2022-07-21T01:44:02;21.70;90.00
10415;DHT22;5254;47.696;9.138;2022-07-21T01:46:30;21.70;90.00
10415;DHT22;5254;47.696;9.138;2022-07-21T01:48:57;21.70;90.00
10415;DHT22;5254;47.696;9.138;2022-07-21T01:51:23;21.70;90.30
10415;DHT22;5254;47.696;9.138;2022-07-21T01:53:50;21.70;90.10
10415;DHT22;5254;47.696;9.138;2022-07-21T01:56:20;21.70;90.10
10415;DHT22;5254;47.696;9.138;2022-07-21T01:58:48;21.70;90.10
10415;DHT22;5254;47.696;9.138;2022-07-21T02:01:16;21.70;90.10
10415;DHT22;5254;47.696;9.138;2022-07-21T02:03:46;21.70;90.10
10415;DHT22;5254;47.696;9.138;2022-07-21T02:06:14;21.70;90.10
10415;DHT22;5254;47.696;9.138;2022-07-21T02:08:41;21.70;90.10
10415;DHT22;5254;47.696;9.138;2022-07-21T02:11:14;21.70;90.10
10415;DHT22;5254;47.696;9.138;2022-07-21T02:13:54;21.60;90.00
10415;DHT22;5254;47.696;9.138;2022-07-21T02:16:32;21.60;90.30
10415;DHT22;5254;47.696;9.138;2022-07-21T02:18:58;21.60;90.00
10415;DHT22;5254;47.696;9.138;2022-07-21T02:21:25;21.50;90.00
10415;DHT22;5254;47.696;9.138;2022-07-21T02:23:52;21.60;90.00
10415;DHT22;5254;47.696;9.138;2022-07-21T02:26:25;21.50;89.90
10415;DHT22;5254;47.696;9.138;2022-07-21T02:28:51;21.60;90.00
10415;DHT22;5254;47.696;9.138;2022-07-21T02:31:17;21.60;90.00
10415;DHT22;5254;47.696;9.138;2022-07-21T02:33:44;21.60;90.00
10415;DHT22;5254;47.696;9.138;2022-07-21T02:36:12;21.60;90.00
10415;DHT22;5254;47.696;9.138;2022-07-21T02:38:48;21.60;90.00
10415;DHT22;5254;47.696;9.138;2022-07-21T02:41:18;21.60;89.90
10415;DHT22;5254;47.696;9.138;2022-07-21T02:43:52;21.60;89.80
10415;DHT22;5254;47.696;9.138;2022-07-21T02:46:40;21.70;89.90
10415;DHT22;5254;47.696;9.138;2022-07-21T02:49:06;21.60;89.60
10415;DHT22;5254;47.696;9.138;2022-07-21T02:51:32;21.60;89.60
10415;DHT22;5254;47.696;9.138;2022-07-21T02:53:57;21.60;89.60
10415;DHT22;5254;47.696;9.138;2022-07-21T02:59:33;21.60;89.60
10415;DHT22;5254;47.696;9.138;2022-07-21T03:01:59;21.60;89.50
10415;DHT22;5254;47.696;9.138;2022-07-21T03:04:25;21.60;89.50
10415;DHT22;5254;47.696;9.138;2022-07-21T03:06:51;21.60;89.50
10415;DHT22;5254;47.696;9.138;2022-07-21T03:09:16;21.50;89.30
10415;DHT22;5254;47.696;9.138;2022-07-21T03:11:42;21.50;89.30
10415;DHT22;5254;47.696;9.138;2022-07-21T03:14:08;21.50;89.30
10415;DHT22;5254;47.696;9.138;2022-07-21T03:16:33;21.60;89.40
10415;DHT22;5254;47.696;9.138;2022-07-21T03:18:59;21.60;89.40
10415;DHT22;5254;47.696;9.138;2022-07-21T03:21:25;21.50;89.20
10415;DHT22;5254;47.696;9.138;2022-07-21T03:23:50;21.50;89.20
10415;DHT22;5254;47.696;9.138;2022-07-21T03:26:16;21.50;89.20
10415;DHT22;5254;47.696;9.138;2022-07-21T03:28:43;21.50;89.20
10415;DHT22;5254;47.696;9.138;2022-07-21T03:31:10;21.50;89.20
10415;DHT22;5254;47.696;9.138;2022-07-21T03:33:35;21.50;89.20
10415;DHT22;5254;47.696;9.138;2022-07-21T03:36:02;21.60;89.40
10415;DHT22;5254;47.696;9.138;2022-07-21T03:38:28;21.50;89.20
10415;DHT22;5254;47.696;9.138;2022-07-21T03:40:54;21.50;89.10
10415;DHT22;5254;47.696;9.138;2022-07-21T03:43:19;21.50;89.20
10415;DHT22;5254;47.696;9.138;2022-07-21T03:45:45;21.50;89.10
10415;DHT22;5254;47.696;9.138;2022-07-21T03:48:11;21.50;89.00
10415;DHT22;5254;47.696;9.138;2022-07-21T03:50:40;21.50;89.10
10415;DHT22;5254;47.696;9.138;2022-07-21T03:53:07;21.50;89.00
10415;DHT22;5254;47.696;9.138;2022-07-21T03:55:32;21.50;89.70
10415;DHT22;5254;47.696;9.138;2022-07-21T03:58:01;21.50;89.00
10415;DHT22;5254;47.696;9.138;2022-07-21T04:02:59;21.50;89.00
10415;DHT22;5254;47.696;9.138;2022-07-21T04:05:26;21.50;89.00
10415;DHT22;5254;47.696;9.138;2022-07-21T04:07:53;21.50;89.00
10415;DHT22;5254;47.696;9.138;2022-07-21T04:10:25;21.50;89.10
10415;DHT22;5254;47.696;9.138;2022-07-21T04:12:52;21.50;89.10
10415;DHT22;5254;47.696;9.138;2022-07-21T04:15:19;21.50;89.00
10415;DHT22;5254;47.696;9.138;2022-07-21T04:17:44;21.50;89.00
10415;DHT22;5254;47.696;9.138;2022-07-21T04:20:12;21.50;89.00
10415;DHT22;5254;47.696;9.138;2022-07-21T04:22:39;21.50;89.00
10415;DHT22;5254;47.696;9.138;2022-07-21T04:25:06;21.50;89.00
10415;DHT22;5254;47.696;9.138;2022-07-21T04:27:33;21.50;89.00
10415;DHT22;5254;47.696;9.138;2022-07-21T04:29:59;21.50;89.00
10415;DHT22;5254;47.696;9.138;2022-07-21T04:32:24;21.50;89.00
10415;DHT22;5254;47.696;9.138;2022-07-21T04:34:50;21.50;88.90
10415;DHT22;5254;47.696;9.138;2022-07-21T04:37:16;21.50;88.90
10415;DHT22;5254;47.696;9.138;2022-07-21T04:39:42;21.50;88.80
10415;DHT22;5254;47.696;9.138;2022-07-21T04:42:08;21.50;88.90
10415;DHT22;5254;47.696;9.138;2022-07-21T04:44:33;21.60;89.00
10415;DHT22;5254;47.696;9.138;2022-07-21T04:47:00;21.50;88.80
10415;DHT22;5254;47.696;9.138;2022-07-21T04:49:26;21.60;88.90
10415;DHT22;5254;47.696;9.138;2022-07-21T04:51:51;21.60;89.00
10415;DHT22;5254;47.696;9.138;2022-07-21T04:54:17;21.60;89.60
10415;DHT22;5254;47.696;9.138;2022-07-21T04:56:43;21.60;88.90
10415;DHT22;5254;47.696;9.138;2022-07-21T04:59:09;21.60;88.70
10415;DHT22;5254;47.696;9.138;2022-07-21T05:01:37;21.70;88.90
10415;DHT22;5254;47.696;9.138;2022-07-21T05:04:03;21.70;88.90
10415;DHT22;5254;47.696;9.138;2022-07-21T05:06:28;21.70;88.80
10415;DHT22;5254;47.696;9.138;2022-07-21T05:08:54;21.70;88.80
10415;DHT22;5254;47.696;9.138;2022-07-21T05:11:20;21.70;88.90
10415;DHT22;5254;47.696;9.138;2022-07-21T05:13:46;21.70;88.90
10415;DHT22;5254;47.696;9.138;2022-07-21T05:16:11;21.70;88.90
10415;DHT22;5254;47.696;9.138;2022-07-21T05:18:37;21.80;89.10
10415;DHT22;5254;47.696;9.138;2022-07-21T05:21:03;21.80;89.10
10415;DHT22;5254;47.696;9.138;2022-07-21T05:23:28;21.80;89.00
10415;DHT22;5254;47.696;9.138;2022-07-21T05:25:54;21.80;89.10
10415;DHT22;5254;47.696;9.138;2022-07-21T05:28:20;21.90;89.20
10415;DHT22;5254;47.696;9.138;2022-07-21T05:30:45;21.90;89.20
10415;DHT22;5254;47.696;9.138;2022-07-21T05:33:11;21.90;89.30
10415;DHT22;5254;47.696;9.138;2022-07-21T05:35:37;21.90;89.20
10415;DHT22;5254;47.696;9.138;2022-07-21T05:38:03;21.90;89.30
10415;DHT22;5254;47.696;9.138;2022-07-21T05:40:29;21.90;89.20
10415;DHT22;5254;47.696;9.138;2022-07-21T05:42:54;21.90;89.20
10415;DHT22;5254;47.696;9.138;2022-07-21T05:45:20;21.90;89.20
10415;DHT22;5254;47.696;9.138;2022-07-21T05:47:46;22.00;89.30
10415;DHT22;5254;47.696;9.138;2022-07-21T05:50:12;22.00;89.20
10415;DHT22;5254;47.696;9.138;2022-07-21T05:52:38;22.00;89.30
10415;DHT22;5254;47.696;9.138;2022-07-21T05:55:04;22.00;89.20
10415;DHT22;5254;47.696;9.138;2022-07-21T05:57:30;22.00;89.30
10415;DHT22;5254;47.696;9.138;2022-07-21T05:59:56;22.00;89.20
10415;DHT22;5254;47.696;9.138;2022-07-21T06:02:23;22.00;89.30
10415;DHT22;5254;47.696;9.138;2022-07-21T06:04:49;22.00;89.20
10415;DHT22;5254;47.696;9.138;2022-07-21T06:07:14;22.00;89.20
10415;DHT22;5254;47.696;9.138;2022-07-21T06:09:40;22.00;89.20
10415;DHT22;5254;47.696;9.138;2022-07-21T06:12:06;22.10;89.40
10415;DHT22;5254;47.696;9.138;2022-07-21T06:14:31;22.10;89.30
10415;DHT22;5254;47.696;9.138;2022-07-21T06:16:57;22.10;89.30
10415;DHT22;5254;47.696;9.138;2022-07-21T06:19:23;22.10;89.30
10415;DHT22;5254;47.696;9.138;2022-07-21T06:21:48;22.10;89.20
10415;DHT22;5254;47.696;9.138;2022-07-21T06:24:14;22.10;89.30
10415;DHT22;5254;47.696;9.138;2022-07-21T06:26:40;22.10;89.10
10415;DHT22;5254;47.696;9.138;2022-07-21T06:29:06;22.10;89.00
10415;DHT22;5254;47.696;9.138;2022-07-21T06:31:33;22.20;89.20
10415;DHT22;5254;47.696;9.138;2022-07-21T06:33:58;22.20;89.20
10415;DHT22;5254;47.696;9.138;2022-07-21T06:36:24;22.20;89.10
10415;DHT22;5254;47.696;9.138;2022-07-21T06:38:50;22.20;89.00
10415;DHT22;5254;47.696;9.138;2022-07-21T06:41:15;22.30;89.20
10415;DHT22;5254;47.696;9.138;2022-07-21T06:43:41;22.40;89.30
10415;DHT22;5254;47.696;9.138;2022-07-21T06:46:07;22.40;89.20
10415;DHT22;5254;47.696;9.138;2022-07-21T06:48:33;22.40;89.00
10415;DHT22;5254;47.696;9.138;2022-07-21T06:50:59;22.40;88.80
10415;DHT22;5254;47.696;9.138;2022-07-21T06:53:26;22.50;88.90
10415;DHT22;5254;47.696;9.138;2022-07-21T06:55:53;22.50;88.70
10415;DHT22;5254;47.696;9.138;2022-07-21T06:58:20;22.50;88.60
10415;DHT22;5254;47.696;9.138;2022-07-21T07:00:48;22.60;88.60
10415;DHT22;5254;47.696;9.138;2022-07-21T07:03:15;22.60;88.40
10415;DHT22;5254;47.696;9.138;2022-07-21T07:05:43;22.60;88.40
10415;DHT22;5254;47.696;9.138;2022-07-21T07:08:09;22.70;88.40
10415;DHT22;5254;47.696;9.138;2022-07-21T07:10:35;22.70;88.30
10415;DHT22;5254;47.696;9.138;2022-07-21T07:13:01;22.80;88.30
10415;DHT22;5254;47.696;9.138;2022-07-21T07:15:28;22.80;88.20
10415;DHT22;5254;47.696;9.138;2022-07-21T07:17:54;22.80;88.00
10415;DHT22;5254;47.696;9.138;2022-07-21T07:20:20;22.90;88.10
10415;DHT22;5254;47.696;9.138;2022-07-21T07:22:46;23.00;88.20
10415;DHT22;5254;47.696;9.138;2022-07-21T07:25:12;23.00;88.10
10415;DHT22;5254;47.696;9.138;2022-07-21T07:27:46;23.10;88.20
10415;DHT22;5254;47.696;9.138;2022-07-21T07:30:13;23.20;88.00
10415;DHT22;5254;47.696;9.138;2022-07-21T07:32:39;23.30;88.10
10415;DHT22;5254;47.696;9.138;2022-07-21T07:35:07;23.40;88.10
10415;DHT22;5254;47.696;9.138;2022-07-21T07:37:37;23.50;88.10
10415;DHT22;5254;47.696;9.138;2022-07-21T07:40:05;23.60;87.90
10415;DHT22;5254;47.696;9.138;2022-07-21T07:42:33;23.80;87.90
10415;DHT22;5254;47.696;9.138;2022-07-21T07:44:59;23.90;87.70
10415;DHT22;5254;47.696;9.138;2022-07-21T07:47:25;24.00;87.60
10415;DHT22;5254;47.696;9.138;2022-07-21T07:49:50;24.10;87.10
10415;DHT22;5254;47.696;9.138;2022-07-21T07:52:19;24.10;86.80
10415;DHT22;5254;47.696;9.138;2022-07-21T07:54:44;24.20;86.60
10415;DHT22;5254;47.696;9.138;2022-07-21T07:57:10;24.20;86.10
10415;DHT22;5254;47.696;9.138;2022-07-21T07:59:36;24.30;86.00
10415;DHT22;5254;47.696;9.138;2022-07-21T08:02:01;24.40;86.00
10415;DHT22;5254;47.696;9.138;2022-07-21T08:04:27;24.50;85.90
10415;DHT22;5254;47.696;9.138;2022-07-21T08:06:53;24.60;85.60
10415;DHT22;5254;47.696;9.138;2022-07-21T08:09:18;24.70;85.30
10415;DHT22;5254;47.696;9.138;2022-07-21T08:11:45;24.70;84.80
10415;DHT22;5254;47.696;9.138;2022-07-21T08:14:13;24.70;84.50
10415;DHT22;5254;47.696;9.138;2022-07-21T08:16:39;24.80;84.40
10415;DHT22;5254;47.696;9.138;2022-07-21T08:19:05;24.80;83.80
10415;DHT22;5254;47.696;9.138;2022-07-21T08:21:30;24.90;83.60
10415;DHT22;5254;47.696;9.138;2022-07-21T08:23:57;25.00;83.40
10415;DHT22;5254;47.696;9.138;2022-07-21T08:26:24;25.10;83.00
10415;DHT22;5254;47.696;9.138;2022-07-21T08:28:52;25.20;82.60
10415;DHT22;5254;47.696;9.138;2022-07-21T08:31:17;25.20;82.00
10415;DHT22;5254;47.696;9.138;2022-07-21T08:33:43;25.20;81.60
10415;DHT22;5254;47.696;9.138;2022-07-21T08:36:10;25.20;81.10
10415;DHT22;5254;47.696;9.138;2022-07-21T08:38:35;25.20;80.60
10415;DHT22;5254;47.696;9.138;2022-07-21T08:41:01;25.20;80.30
10415;DHT22;5254;47.696;9.138;2022-07-21T08:43:27;25.20;79.90
10415;DHT22;5254;47.696;9.138;2022-07-21T08:45:53;25.20;79.40
10415;DHT22;5254;47.696;9.138;2022-07-21T08:48:24;25.30;79.20
10415;DHT22;5254;47.696;9.138;2022-07-21T08:50:50;25.30;78.70
10415;DHT22;5254;47.696;9.138;2022-07-21T08:53:16;25.40;78.50
10415;DHT22;5254;47.696;9.138;2022-07-21T08:55:42;25.40;78.00
10415;DHT22;5254;47.696;9.138;2022-07-21T08:58:09;25.40;77.60
10415;DHT22;5254;47.696;9.138;2022-07-21T09:00:40;25.50;77.40
10415;DHT22;5254;47.696;9.138;2022-07-21T09:05:38;25.60;76.90
10415;DHT22;5254;47.696;9.138;2022-07-21T09:08:04;25.60;76.50
10415;DHT22;5254;47.696;9.138;2022-07-21T09:10:31;25.60;76.10
10415;DHT22;5254;47.696;9.138;2022-07-21T09:13:02;25.70;76.30
10415;DHT22;5254;47.696;9.138;2022-07-21T09:15:30;25.80;75.40
10415;DHT22;5254;47.696;9.138;2022-07-21T09:18:14;25.80;74.50
10415;DHT22;5254;47.696;9.138;2022-07-21T09:20:49;25.70;73.30
10415;DHT22;5254;47.696;9.138;2022-07-21T09:23:16;25.80;73.10
10415;DHT22;5254;47.696;9.138;2022-07-21T09:28:17;25.90;72.40
10415;DHT22;5254;47.696;9.138;2022-07-21T09:31:04;26.00;73.00
10415;DHT22;5254;47.696;9.138;2022-07-21T09:33:45;26.10;71.30
10415;DHT22;5254;47.696;9.138;2022-07-21T09:36:16;26.20;71.40
10415;DHT22;5254;47.696;9.138;2022-07-21T09:41:15;26.20;70.50
10415;DHT22;5254;47.696;9.138;2022-07-21T09:43:49;26.30;70.40
10415;DHT22;5254;47.696;9.138;2022-07-21T09:46:24;26.30;69.90
10415;DHT22;5254;47.696;9.138;2022-07-21T09:48:54;26.30;69.50
10415;DHT22;5254;47.696;9.138;2022-07-21T09:51:40;26.40;69.40
10415;DHT22;5254;47.696;9.138;2022-07-21T09:54:12;26.50;69.20
10415;DHT22;5254;47.696;9.138;2022-07-21T09:56:43;26.50;69.00
10415;DHT22;5254;47.696;9.138;2022-07-21T09:59:11;26.60;68.70
10415;DHT22;5254;47.696;9.138;2022-07-21T10:01:38;26.70;68.40
10415;DHT22;5254;47.696;9.138;2022-07-21T10:04:04;26.70;67.90
10415;DHT22;5254;47.696;9.138;2022-07-21T10:06:38;26.70;66.70
10415;DHT22;5254;47.696;9.138;2022-07-21T10:09:06;26.70;66.00
10415;DHT22;5254;47.696;9.138;2022-07-21T10:11:32;26.60;65.70
10415;DHT22;5254;47.696;9.138;2022-07-21T10:13:58;26.60;65.60
10415;DHT22;5254;47.696;9.138;2022-07-21T10:16:24;26.60;65.10
10415;DHT22;5254;47.696;9.138;2022-07-21T10:22:09;26.50;63.40
10415;DHT22;5254;47.696;9.138;2022-07-21T10:24:36;26.40;63.20
10415;DHT22;5254;47.696;9.138;2022-07-21T10:27:07;26.30;63.60
10415;DHT22;5254;47.696;9.138;2022-07-21T10:32:15;26.60;63.60
10415;DHT22;5254;47.696;9.138;2022-07-21T10:34:41;26.60;63.30
10415;DHT22;5254;47.696;9.138;2022-07-21T10:37:09;26.60;63.20
10415;DHT22;5254;47.696;9.138;2022-07-21T10:39:35;26.60;63.20
10415;DHT22;5254;47.696;9.138;2022-07-21T10:42:16;26.70;62.90
10415;DHT22;5254;47.696;9.138;2022-07-21T10:44:44;26.60;62.40
10415;DHT22;5254;47.696;9.138;2022-07-21T10:47:21;26.60;62.10
10415;DHT22;5254;47.696;9.138;2022-07-21T10:50:00;26.60;61.80
10415;DHT22;5254;47.696;9.138;2022-07-21T10:57:40;26.90;62.20
10415;DHT22;5254;47.696;9.138;2022-07-21T11:00:25;27.00;62.20
10415;DHT22;5254;47.696;9.138;2022-07-21T11:02:58;27.00;61.90
10415;DHT22;5254;47.696;9.138;2022-07-21T11:05:26;27.10;62.00
10415;DHT22;5254;47.696;9.138;2022-07-21T11:10:35;27.40;61.60
10415;DHT22;5254;47.696;9.138;2022-07-21T11:13:00;27.60;61.40
10415;DHT22;5254;47.696;9.138;2022-07-21T11:15:46;27.60;61.30
10415;DHT22;5254;47.696;9.138;2022-07-21T11:18:17;27.70;61.10
10415;DHT22;5254;47.696;9.138;2022-07-21T11:20:43;27.80;61.00
10415;DHT22;5254;47.696;9.138;2022-07-21T11:23:09;27.80;60.60
10415;DHT22;5254;47.696;9.138;2022-07-21T11:25:35;27.90;60.60
10415;DHT22;5254;47.696;9.138;2022-07-21T11:28:01;27.90;60.20
10415;DHT22;5254;47.696;9.138;2022-07-21T11:30:27;27.90;59.90
10415;DHT22;5254;47.696;9.138;2022-07-21T11:32:53;27.90;59.80
10415;DHT22;5254;47.696;9.138;2022-07-21T11:35:18;27.80;59.70
10415;DHT22;5254;47.696;9.138;2022-07-21T11:37:45;27.90;59.70
10415;DHT22;5254;47.696;9.138;2022-07-21T11:40:16;27.90;59.60
10415;DHT22;5254;47.696;9.138;2022-07-21T11:42:43;28.00;59.50
10415;DHT22;5254;47.696;9.138;2022-07-21T11:45:10;28.00;59.20
10415;DHT22;5254;47.696;9.138;2022-07-21T11:47:37;28.00;58.70
10415;DHT22;5254;47.696;9.138;2022-07-21T11:50:05;28.00;58.60
10415;DHT22;5254;47.696;9.138;2022-07-21T11:52:34;28.00;58.50
10415;DHT22;5254;47.696;9.138;2022-07-21T11:55:02;28.00;58.10
10415;DHT22;5254;47.696;9.138;2022-07-21T11:57:28;28.00;57.80
10415;DHT22;5254;47.696;9.138;2022-07-21T11:59:56;28.00;57.80
10415;DHT22;5254;47.696;9.138;2022-07-21T12:02:27;28.00;57.50
10415;DHT22;5254;47.696;9.138;2022-07-21T12:04:58;28.00;57.50
10415;DHT22;5254;47.696;9.138;2022-07-21T12:10:01;28.10;57.20
10415;DHT22;5254;47.696;9.138;2022-07-21T12:14:53;28.30;57.10
10415;DHT22;5254;47.696;9.138;2022-07-21T12:17:37;28.40;57.00
10415;DHT22;5254;47.696;9.138;2022-07-21T12:20:04;28.40;56.60
10415;DHT22;5254;47.696;9.138;2022-07-21T12:22:39;28.50;56.60
10415;DHT22;5254;47.696;9.138;2022-07-21T12:25:06;28.50;56.40
10415;DHT22;5254;47.696;9.138;2022-07-21T12:27:40;28.60;56.30
10415;DHT22;5254;47.696;9.138;2022-07-21T12:30:08;28.60;55.90
10415;DHT22;5254;47.696;9.138;2022-07-21T12:32:44;28.60;55.50
10415;DHT22;5254;47.696;9.138;2022-07-21T12:35:25;28.60;54.90
10415;DHT22;5254;47.696;9.138;2022-07-21T12:38:02;28.60;54.30
10415;DHT22;5254;47.696;9.138;2022-07-21T12:40:30;28.70;53.90
10415;DHT22;5254;47.696;9.138;2022-07-21T12:43:14;28.70;53.60
10415;DHT22;5254;47.696;9.138;2022-07-21T12:53:23;28.90;52.30
10415;DHT22;5254;47.696;9.138;2022-07-21T12:55:48;29.00;52.00
10415;DHT22;5254;47.696;9.138;2022-07-21T12:58:14;29.00;51.80
10415;DHT22;5254;47.696;9.138;2022-07-21T13:00:40;29.00;51.40
10415;DHT22;5254;47.696;9.138;2022-07-21T13:03:08;29.10;51.10
10415;DHT22;5254;47.696;9.138;2022-07-21T13:05:34;29.10;50.80
10415;DHT22;5254;47.696;9.138;2022-07-21T13:08:00;29.10;50.40
10415;DHT22;5254;47.696;9.138;2022-07-21T13:10:26;29.10;50.10
10415;DHT22;5254;47.696;9.138;2022-07-21T13:12:51;29.10;49.90
10415;DHT22;5254;47.696;9.138;2022-07-21T13:15:17;29.10;49.60
10415;DHT22;5254;47.696;9.138;2022-07-21T13:17:43;29.10;49.30
10415;DHT22;5254;47.696;9.138;2022-07-21T13:20:10;29.10;49.10
10415;DHT22;5254;47.696;9.138;2022-07-21T13:22:36;29.10;48.80
10415;DHT22;5254;47.696;9.138;2022-07-21T13:25:03;29.10;47.90
10415;DHT22;5254;47.696;9.138;2022-07-21T13:27:29;29.20;47.60
10415;DHT22;5254;47.696;9.138;2022-07-21T13:29:54;29.20;47.30
10415;DHT22;5254;47.696;9.138;2022-07-21T13:32:20;29.20;47.20
10415;DHT22;5254;47.696;9.138;2022-07-21T13:34:46;29.20;47.20
10415;DHT22;5254;47.696;9.138;2022-07-21T13:37:12;29.20;47.10
10415;DHT22;5254;47.696;9.138;2022-07-21T13:39:38;29.20;47.10
10415;DHT22;5254;47.696;9.138;2022-07-21T13:42:05;29.20;47.00
10415;DHT22;5254;47.696;9.138;2022-07-21T13:44:32;29.20;46.90
10415;DHT22;5254;47.696;9.138;2022-07-21T13:46:58;29.20;46.80
10415;DHT22;5254;47.696;9.138;2022-07-21T13:49:23;29.20;46.60
10415;DHT22;5254;47.696;9.138;2022-07-21T13:51:49;29.30;46.40
10415;DHT22;5254;47.696;9.138;2022-07-21T13:54:15;29.20;46.20
10415;DHT22;5254;47.696;9.138;2022-07-21T13:56:41;29.20;46.00
10415;DHT22;5254;47.696;9.138;2022-07-21T13:59:06;29.20;45.80
10415;DHT22;5254;47.696;9.138;2022-07-21T14:01:32;29.10;45.60
10415;DHT22;5254;47.696;9.138;2022-07-21T14:03:58;29.10;45.60
10415;DHT22;5254;47.696;9.138;2022-07-21T14:06:24;29.10;45.50
10415;DHT22;5254;47.696;9.138;2022-07-21T14:08:50;29.10;45.50
10415;DHT22;5254;47.696;9.138;2022-07-21T14:11:16;29.20;45.60
10415;DHT22;5254;47.696;9.138;2022-07-21T14:13:42;29.20;45.60
10415;DHT22;5254;47.696;9.138;2022-07-21T14:16:08;29.30;45.40
10415;DHT22;5254;47.696;9.138;2022-07-21T14:18:34;29.20;44.90
10415;DHT22;5254;47.696;9.138;2022-07-21T14:21:00;29.10;44.80
10415;DHT22;5254;47.696;9.138;2022-07-21T14:23:26;29.10;44.80
10415;DHT22;5254;47.696;9.138;2022-07-21T14:25:52;29.10;44.60
10415;DHT22;5254;47.696;9.138;2022-07-21T14:28:18;29.20;44.50
10415;DHT22;5254;47.696;9.138;2022-07-21T14:30:45;29.20;44.50
10415;DHT22;5254;47.696;9.138;2022-07-21T14:33:10;29.30;44.50
10415;DHT22;5254;47.696;9.138;2022-07-21T14:35:36;29.30;44.40
10415;DHT22;5254;47.696;9.138;2022-07-21T14:38:03;29.30;44.40
10415;DHT22;5254;47.696;9.138;2022-07-21T14:40:29;29.30;44.40
10415;DHT22;5254;47.696;9.138;2022-07-21T14:42:54;29.30;44.30
10415;DHT22;5254;47.696;9.138;2022-07-21T14:45:21;29.30;44.20
10415;DHT22;5254;47.696;9.138;2022-07-21T14:47:48;29.30;44.30
10415;DHT22;5254;47.696;9.138;2022-07-21T14:50:14;29.30;44.40
10415;DHT22;5254;47.696;9.138;2022-07-21T14:52:41;29.30;44.50
10415;DHT22;5254;47.696;9.138;2022-07-21T14:55:08;29.30;44.40
10415;DHT22;5254;47.696;9.138;2022-07-21T14:57:34;29.30;44.50
10415;DHT22;5254;47.696;9.138;2022-07-21T15:00:03;29.30;44.50
10415;DHT22;5254;47.696;9.138;2022-07-21T15:02:29;29.30;44.40
10415;DHT22;5254;47.696;9.138;2022-07-21T15:04:54;29.40;44.40
10415;DHT22;5254;47.696;9.138;2022-07-21T15:07:20;29.30;44.30
10415;DHT22;5254;47.696;9.138;2022-07-21T15:09:46;29.30;44.40
10415;DHT22;5254;47.696;9.138;2022-07-21T15:12:12;29.30;44.40
10415;DHT22;5254;47.696;9.138;2022-07-21T15:14:38;29.30;44.40
10415;DHT22;5254;47.696;9.138;2022-07-21T15:17:04;29.30;44.40
10415;DHT22;5254;47.696;9.138;2022-07-21T15:19:30;29.30;44.20
10415;DHT22;5254;47.696;9.138;2022-07-21T15:21:56;29.30;44.10
10415;DHT22;5254;47.696;9.138;2022-07-21T15:24:22;29.30;44.10
10415;DHT22;5254;47.696;9.138;2022-07-21T15:26:48;29.30;44.00
10415;DHT22;5254;47.696;9.138;2022-07-21T15:29:14;29.30;43.80
10415;DHT22;5254;47.696;9.138;2022-07-21T15:31:40;29.30;43.70
10415;DHT22;5254;47.696;9.138;2022-07-21T15:34:07;29.30;43.70
10415;DHT22;5254;47.696;9.138;2022-07-21T15:36:33;29.30;43.80
10415;DHT22;5254;47.696;9.138;2022-07-21T15:38:59;29.30;43.90
10415;DHT22;5254;47.696;9.138;2022-07-21T15:41:26;29.30;44.00
10415;DHT22;5254;47.696;9.138;2022-07-21T15:43:53;29.30;44.10
10415;DHT22;5254;47.696;9.138;2022-07-21T15:46:18;29.30;44.20
10415;DHT22;5254;47.696;9.138;2022-07-21T15:48:44;29.30;44.20
10415;DHT22;5254;47.696;9.138;2022-07-21T15:51:10;29.30;44.20
10415;DHT22;5254;47.696;9.138;2022-07-21T15:53:36;29.20;44.20
10415;DHT22;5254;47.696;9.138;2022-07-21T15:56:03;29.20;44.20
10415;DHT22;5254;47.696;9.138;2022-07-21T15:58:29;29.20;44.20
10415;DHT22;5254;47.696;9.138;2022-07-21T16:00:56;29.20;44.30
10415;DHT22;5254;47.696;9.138;2022-07-21T16:03:23;29.20;44.30
10415;DHT22;5254;47.696;9.138;2022-07-21T16:05:48;29.10;44.20
10415;DHT22;5254;47.696;9.138;2022-07-21T16:08:15;29.10;44.20
10415;DHT22;5254;47.696;9.138;2022-07-21T16:10:41;29.10;44.20
10415;DHT22;5254;47.696;9.138;2022-07-21T16:13:07;29.10;44.10
10415;DHT22;5254;47.696;9.138;2022-07-21T16:15:33;29.10;44.10
10415;DHT22;5254;47.696;9.138;2022-07-21T16:17:59;29.00;44.00
10415;DHT22;5254;47.696;9.138;2022-07-21T16:20:25;29.00;44.00
10415;DHT22;5254;47.696;9.138;2022-07-21T16:22:52;29.00;44.00
10415;DHT22;5254;47.696;9.138;2022-07-21T16:25:20;29.10;44.10
10415;DHT22;5254;47.696;9.138;2022-07-21T16:27:48;29.00;44.00